createdAt,value
2023-03-22T00:02:23.082Z,19.70
2023-03-22T00:04:49.861Z,19.80
2023-03-22T00:07:17.067Z,19.70
2023-03-22T00:09:44.103Z,19.70
2023-03-22T00:12:11.013Z,19.60
2023-03-22T00:14:37.859Z,19.60
2023-03-22T00:17:04.552Z,19.50
2023-03-22T00:19:33.830Z,19.50
2023-03-22T00:22:01.158Z,19.40
2023-03-22T00:24:27.809Z,19.40
2023-03-22T00:26:54.474Z,19.30
2023-03-22T00:29:22.768Z,19.30
2023-03-22T00:31:50.202Z,19.30
2023-03-22T00:34:17.008Z,19.30
2023-03-22T00:36:43.682Z,19.20
2023-03-22T00:39:10.505Z,19.30
2023-03-22T00:41:37.366Z,19.30
2023-03-22T00:44:04.169Z,19.30
2023-03-22T00:46:30.979Z,19.20
2023-03-22T00:48:57.732Z,19.20
2023-03-22T00:51:24.773Z,19.30
2023-03-22T00:53:52.265Z,19.20
2023-03-22T00:56:19.514Z,19.20
2023-03-22T00:58:46.281Z,19.20
2023-03-22T01:01:13.949Z,19.20
2023-03-22T01:03:42.997Z,19.20
2023-03-22T01:06:10.484Z,19.20
2023-03-22T01:08:38.647Z,19.20
2023-03-22T01:11:07.056Z,19.20
2023-03-22T01:13:34.645Z,19.10
2023-03-22T01:16:01.330Z,19.10
2023-03-22T01:18:28.185Z,19.10
2023-03-22T01:20:54.981Z,19.10
2023-03-22T01:23:21.684Z,19.10
2023-03-22T01:25:48.339Z,19.20
2023-03-22T01:28:15.455Z,19.10
2023-03-22T01:30:42.862Z,19.10
2023-03-22T01:33:09.946Z,19.00
2023-03-22T01:35:36.904Z,19.10
2023-03-22T01:38:04.018Z,19.00
2023-03-22T01:40:30.906Z,19.10
2023-03-22T01:42:57.646Z,19.00
2023-03-22T01:45:27.555Z,19.00
2023-03-22T01:48:02.252Z,19.00
2023-03-22T01:50:30.131Z,18.90
2023-03-22T01:52:58.634Z,19.00
2023-03-22T01:55:26.089Z,19.00
2023-03-22T01:57:53.935Z,19.00
2023-03-22T02:00:22.379Z,19.00
2023-03-22T02:02:51.490Z,19.00
2023-03-22T02:05:19.670Z,19.00
2023-03-22T02:07:46.464Z,19.00
2023-03-22T02:10:16.355Z,19.00
2023-03-22T02:13:00.686Z,18.90
2023-03-22T02:15:43.708Z,18.90
2023-03-22T02:18:32.064Z,18.90
2023-03-22T02:20:58.964Z,18.80
2023-03-22T02:23:43.546Z,18.90
2023-03-22T02:26:41.690Z,18.90
2023-03-22T02:29:17.767Z,18.90
2023-03-22T02:31:58.766Z,18.90
2023-03-22T02:34:53.843Z,18.80
2023-03-22T02:37:46.255Z,18.90
2023-03-22T02:40:48.304Z,18.90
2023-03-22T02:43:14.954Z,18.80
2023-03-22T02:45:57.031Z,18.90
2023-03-22T02:49:11.412Z,18.80
2023-03-22T02:52:03.270Z,18.80
2023-03-22T02:54:35.502Z,18.80
2023-03-22T02:57:08.492Z,18.80
2023-03-22T02:59:38.431Z,18.70
2023-03-22T03:02:08.603Z,18.70
2023-03-22T03:04:44.609Z,18.80
2023-03-22T03:07:15.412Z,18.80
2023-03-22T03:09:44.001Z,18.80
2023-03-22T03:12:20.471Z,18.70
2023-03-22T03:14:47.557Z,18.70
2023-03-22T03:17:29.080Z,18.80
2023-03-22T03:20:01.150Z,18.90
2023-03-22T03:22:55.886Z,19.10
2023-03-22T03:25:30.911Z,19.10
2023-03-22T03:28:14.670Z,19.20
2023-03-22T03:30:49.797Z,19.20
2023-03-22T03:33:19.574Z,19.20
2023-03-22T03:36:08.411Z,19.40
2023-03-22T03:38:38.695Z,19.30
2023-03-22T03:41:10.552Z,19.30
2023-03-22T03:43:38.597Z,19.50
2023-03-22T03:46:06.466Z,19.50
2023-03-22T03:48:35.677Z,19.30
2023-03-22T03:51:03.016Z,19.50
2023-03-22T03:53:30.465Z,19.40
2023-03-22T03:55:57.510Z,19.40
2023-03-22T03:58:24.460Z,19.50
2023-03-22T04:00:51.625Z,19.50
2023-03-22T04:03:18.354Z,19.50
2023-03-22T04:05:46.538Z,19.50
2023-03-22T04:08:13.645Z,19.50
2023-03-22T04:10:40.987Z,19.50
2023-03-22T04:13:07.896Z,19.60
2023-03-22T04:15:34.604Z,19.40
2023-03-22T04:18:01.314Z,19.50
2023-03-22T04:20:29.737Z,19.40
2023-03-22T04:22:57.980Z,19.60
2023-03-22T04:25:29.822Z,19.70
2023-03-22T04:27:56.797Z,19.50
2023-03-22T04:30:24.930Z,19.60
2023-03-22T04:32:51.702Z,19.50
2023-03-22T04:35:18.738Z,19.60
2023-03-22T04:37:45.666Z,19.50
2023-03-22T04:40:17.063Z,19.50
2023-03-22T04:42:44.743Z,19.50
2023-03-22T04:45:13.153Z,19.40
2023-03-22T04:47:40.275Z,19.50
2023-03-22T04:50:08.206Z,19.50
2023-03-22T04:52:34.937Z,19.50
2023-03-22T04:55:01.757Z,19.50
2023-03-22T04:57:28.592Z,19.50
2023-03-22T04:59:55.552Z,19.50
2023-03-22T05:02:22.636Z,19.50
2023-03-22T05:04:49.361Z,19.50
2023-03-22T05:07:16.061Z,19.50
2023-03-22T05:09:42.758Z,19.50
2023-03-22T05:12:09.558Z,19.50
2023-03-22T05:14:36.435Z,19.50
2023-03-22T05:17:03.710Z,19.40
2023-03-22T05:19:30.508Z,19.50
2023-03-22T05:21:58.159Z,19.50
2023-03-22T05:24:25.102Z,19.50
2023-03-22T05:26:53.739Z,19.50
2023-03-22T05:29:21.486Z,19.50
2023-03-22T05:31:48.629Z,19.50
2023-03-22T05:34:15.419Z,19.50
2023-03-22T05:36:42.139Z,19.50
2023-03-22T05:39:08.961Z,19.50
2023-03-22T05:41:36.943Z,19.40
2023-03-22T05:44:04.937Z,19.40
2023-03-22T05:46:31.826Z,19.40
2023-03-22T05:48:58.649Z,19.50
2023-03-22T05:51:25.664Z,19.50
2023-03-22T05:53:54.396Z,19.50
2023-03-22T05:56:24.211Z,19.30
2023-03-22T05:58:51.769Z,19.40
2023-03-22T06:01:20.367Z,19.40
2023-03-22T06:03:48.543Z,19.50
2023-03-22T06:06:15.871Z,19.40
2023-03-22T06:08:43.270Z,19.50
2023-03-22T06:11:10.411Z,19.50
2023-03-22T06:13:37.622Z,19.40
2023-03-22T06:16:05.458Z,19.40
2023-03-22T06:18:33.106Z,19.50
2023-03-22T06:21:00.634Z,19.40
2023-03-22T06:23:28.058Z,19.40
2023-03-22T06:25:54.773Z,19.40
2023-03-22T06:28:21.746Z,19.40
2023-03-22T06:30:48.577Z,19.40
2023-03-22T06:33:15.333Z,19.40
2023-03-22T06:35:42.114Z,19.30
2023-03-22T06:38:09.434Z,19.30
2023-03-22T06:40:36.089Z,19.30
2023-03-22T06:43:06.861Z,19.30
2023-03-22T06:45:34.020Z,19.30
2023-03-22T06:48:01.462Z,19.30
2023-03-22T06:50:29.012Z,19.20
2023-03-22T06:52:56.137Z,19.40
2023-03-22T06:55:23.187Z,19.40
2023-03-22T06:57:49.874Z,19.30
2023-03-22T07:00:16.903Z,19.40
2023-03-22T07:02:43.599Z,19.40
2023-03-22T07:05:10.694Z,19.50
2023-03-22T07:07:37.450Z,19.40
2023-03-22T07:10:04.473Z,19.40
2023-03-22T07:12:31.184Z,19.40
2023-03-22T07:14:57.969Z,19.30
2023-03-22T07:17:24.819Z,19.40
2023-03-22T07:19:51.473Z,19.50
2023-03-22T07:22:18.368Z,19.50
2023-03-22T07:24:56.265Z,19.50
2023-03-22T07:27:24.540Z,19.50
2023-03-22T07:29:51.250Z,19.50
2023-03-22T07:32:18.093Z,19.60
2023-03-22T07:34:44.886Z,19.50
2023-03-22T07:37:11.601Z,19.50
2023-03-22T07:39:38.423Z,19.50
2023-03-22T07:42:05.460Z,19.60
2023-03-22T07:44:32.549Z,19.60
2023-03-22T07:46:59.328Z,19.50
2023-03-22T07:49:27.101Z,19.50
2023-03-22T07:51:53.797Z,19.60
2023-03-22T07:54:33.055Z,19.50
2023-03-22T07:57:01.578Z,19.50
2023-03-22T07:59:28.754Z,19.60
2023-03-22T08:01:55.927Z,19.40
2023-03-22T08:04:23.321Z,19.60
2023-03-22T08:06:51.301Z,19.50
2023-03-22T08:09:18.400Z,19.50
2023-03-22T08:11:45.269Z,19.50
2023-03-22T08:14:12.075Z,19.50
2023-03-22T08:16:38.906Z,19.50
2023-03-22T08:19:06.001Z,19.50
2023-03-22T08:21:32.689Z,19.60
2023-03-22T08:23:59.439Z,19.50
2023-03-22T08:26:27.313Z,19.50
2023-03-22T08:28:54.198Z,19.60
2023-03-22T08:31:21.027Z,19.60
2023-03-22T08:33:47.994Z,19.60
2023-03-22T08:36:22.710Z,19.50
2023-03-22T08:38:50.211Z,19.40
2023-03-22T08:41:16.943Z,19.40
2023-03-22T08:43:43.771Z,19.40
2023-03-22T08:46:10.754Z,19.60
2023-03-22T08:48:38.424Z,19.50
2023-03-22T08:51:06.383Z,19.40
2023-03-22T08:53:33.115Z,19.50
2023-03-22T08:56:01.634Z,19.40
2023-03-22T08:58:28.571Z,19.50
2023-03-22T09:00:55.685Z,19.50
2023-03-22T09:03:24.007Z,19.50
2023-03-22T09:05:50.783Z,19.50
2023-03-22T09:08:19.618Z,19.40
2023-03-22T09:10:51.875Z,19.40
2023-03-22T09:13:19.215Z,19.60
2023-03-22T09:15:46.443Z,19.60
2023-03-22T09:18:13.671Z,19.50
2023-03-22T09:20:40.957Z,19.60
2023-03-22T09:23:07.947Z,19.50
2023-03-22T09:25:34.697Z,19.60
2023-03-22T09:28:02.269Z,19.70
2023-03-22T09:30:29.044Z,19.50
2023-03-22T09:32:55.892Z,19.50
2023-03-22T09:35:22.762Z,19.50
2023-03-22T09:37:53.225Z,19.60
2023-03-22T09:40:20.925Z,19.70
2023-03-22T09:42:52.883Z,19.60
2023-03-22T09:45:38.123Z,19.60
2023-03-22T09:48:12.448Z,19.60
2023-03-22T09:50:46.662Z,19.60
2023-03-22T09:53:15.437Z,19.60
2023-03-22T09:56:15.506Z,19.60
2023-03-22T09:59:06.792Z,19.60
2023-03-22T10:01:51.954Z,19.60
2023-03-22T10:04:39.290Z,19.60
2023-03-22T10:07:30.611Z,19.50
2023-03-22T10:09:57.271Z,19.60
2023-03-22T10:13:01.249Z,19.60
2023-03-22T10:15:43.356Z,19.50
2023-03-22T10:18:22.771Z,19.60
2023-03-22T10:21:09.472Z,19.50
2023-03-22T10:23:46.581Z,19.60
2023-03-22T10:26:38.493Z,19.50
2023-03-22T10:29:12.267Z,19.50
2023-03-22T10:31:42.455Z,19.50
2023-03-22T10:34:22.453Z,19.50
2023-03-22T10:36:51.736Z,19.40
2023-03-22T10:39:31.435Z,19.50
2023-03-22T10:42:02.793Z,19.60
2023-03-22T10:44:35.287Z,19.60
2023-03-22T10:47:07.900Z,19.60
2023-03-22T10:49:43.851Z,19.60
2023-03-22T10:52:49.775Z,19.50
2023-03-22T10:55:17.181Z,19.60
2023-03-22T10:57:56.329Z,19.60
2023-03-22T11:00:24.868Z,19.60
2023-03-22T11:02:53.890Z,19.40
2023-03-22T11:05:25.745Z,19.60
2023-03-22T11:07:53.409Z,19.60
2023-03-22T11:10:29.706Z,19.70
2023-03-22T11:13:11.422Z,19.70
2023-03-22T11:15:48.898Z,19.70
2023-03-22T11:18:17.351Z,19.80
2023-03-22T11:21:13.974Z,19.70
2023-03-22T11:23:44.594Z,19.70
2023-03-22T11:26:13.739Z,19.70
2023-03-22T11:28:47.633Z,19.70
2023-03-22T11:31:19.896Z,19.70
2023-03-22T11:33:58.679Z,19.60
2023-03-22T11:36:26.686Z,19.50
2023-03-22T11:38:58.790Z,19.60
2023-03-22T11:41:31.429Z,19.70
2023-03-22T11:44:13.767Z,19.70
2023-03-22T11:47:08.973Z,19.90
2023-03-22T11:49:35.690Z,19.80
2023-03-22T11:52:12.627Z,19.80
2023-03-22T11:54:42.446Z,19.70
2023-03-22T11:57:17.304Z,19.90
2023-03-22T11:59:56.421Z,19.70
2023-03-22T12:02:26.643Z,19.90
2023-03-22T12:05:09.213Z,19.90
2023-03-22T12:07:37.669Z,19.90
2023-03-22T12:10:07.593Z,19.90
2023-03-22T12:12:42.601Z,19.90
2023-03-22T12:15:20.887Z,19.80
2023-03-22T12:18:00.303Z,20.00
2023-03-22T12:20:52.901Z,19.90
2023-03-22T12:23:23.078Z,19.80
2023-03-22T12:25:54.910Z,19.80
2023-03-22T12:28:28.121Z,19.80
2023-03-22T12:30:58.327Z,19.90
2023-03-22T12:33:27.341Z,19.80
2023-03-22T12:36:05.550Z,19.90
2023-03-22T12:38:43.767Z,19.90
2023-03-22T12:41:17.937Z,19.80
2023-03-22T12:44:10.553Z,19.90
2023-03-22T12:46:49.579Z,19.90
2023-03-22T12:49:19.710Z,20.00
2023-03-22T12:51:48.663Z,19.80
2023-03-22T12:54:18.178Z,19.90
2023-03-22T12:56:46.414Z,19.90
2023-03-22T12:59:19.322Z,20.00
2023-03-22T13:01:58.019Z,20.00
2023-03-22T13:04:36.664Z,20.00
2023-03-22T13:07:31.503Z,20.00
2023-03-22T13:09:59.666Z,20.10
2023-03-22T13:12:29.802Z,20.10
2023-03-22T13:14:57.958Z,20.10
2023-03-22T13:17:25.006Z,20.00
2023-03-22T13:20:07.775Z,20.00
2023-03-22T13:22:37.840Z,20.00
2023-03-22T13:25:26.165Z,19.90
2023-03-22T13:28:03.621Z,19.90
2023-03-22T13:30:33.204Z,19.90
2023-03-22T13:33:12.598Z,20.00
2023-03-22T13:35:50.838Z,20.00
2023-03-22T13:38:28.219Z,20.10
2023-03-22T13:41:00.760Z,20.10
2023-03-22T13:43:50.108Z,20.10
2023-03-22T13:46:20.479Z,20.10
2023-03-22T13:48:47.655Z,20.10
2023-03-22T13:51:25.384Z,20.00
2023-03-22T13:54:09.160Z,20.10
2023-03-22T13:56:44.523Z,20.10
2023-03-22T13:59:22.763Z,20.10
2023-03-22T14:02:23.407Z,20.10
2023-03-22T14:04:56.863Z,20.20
2023-03-22T14:07:56.248Z,20.20
2023-03-22T14:10:43.338Z,20.20
2023-03-22T14:13:28.328Z,20.20
2023-03-22T14:15:58.885Z,20.10
2023-03-22T14:18:30.159Z,20.20
2023-03-22T14:21:03.284Z,20.10
